Time;durP1;ratioP1;P1;durP2;ratioP2;P2;SDS_P1;SDS_P2;PMS_P1;PMS_P2;Temp;Humidity;BMP_temperature;BMP_pressure;BME280_temperature;BME280_humidity;BME280_pressure;Samples;Min_cycle;Max_cycle;Signal;HPM_P1;HPM_P2
2021/05/17 00:02:08;;;;;;;0.45;0.30;;;;;;;10.36;76.29;95134.31;5052413;28;20098;-70
2021/05/17 00:04:34;;;;;;;0.50;0.30;;;;;;;10.37;76.10;95126.94;5051080;28;20040;-69
2021/05/17 00:07:02;;;;;;;1.92;0.30;;;;;;;10.36;76.16;95128.09;5030942;28;20504;-69
2021/05/17 00:09:29;;;;;;;0.30;0.30;;;;;;;10.38;76.17;95136.69;5032810;28;20041;-69
2021/05/17 00:11:56;;;;;;;0.52;0.40;;;;;;;10.39;75.86;95146.44;5031386;28;20420;-70
2021/05/17 00:14:23;;;;;;;0.68;0.43;;;;;;;10.36;76.23;95149.84;5032879;28;20045;-69
2021/05/17 00:16:51;;;;;;;0.57;0.32;;;;;;;10.30;75.78;95157.47;5032244;28;20045;-70
2021/05/17 00:19:17;;;;;;;0.55;0.32;;;;;;;10.22;75.97;95163.00;5033068;28;20052;-69
2021/05/17 00:21:45;;;;;;;0.52;0.20;;;;;;;10.19;76.48;95162.56;5032249;28;20053;-70
2021/05/17 00:24:13;;;;;;;1.10;0.30;;;;;;;10.16;76.35;95167.91;5032600;28;20045;-70
2021/05/17 00:26:40;;;;;;;2.75;0.40;;;;;;;10.11;76.03;95166.22;5032564;28;20158;-70
2021/05/17 00:29:09;;;;;;;1.02;0.30;;;;;;;10.15;76.29;95172.56;5032210;28;20631;-69
2021/05/17 00:31:35;;;;;;;0.77;0.30;;;;;;;10.16;75.12;95165.97;5032847;28;20045;-70
2021/05/17 00:34:03;;;;;;;0.30;0.30;;;;;;;10.19;75.10;95168.00;5032072;28;20042;-70
2021/05/17 00:36:30;;;;;;;0.60;0.30;;;;;;;10.16;74.11;95174.13;5033043;28;20045;-70
2021/05/17 00:38:57;;;;;;;2.35;0.63;;;;;;;10.18;74.44;95171.88;5031920;28;20069;-70
2021/05/17 00:41:24;;;;;;;0.65;0.30;;;;;;;10.17;74.06;95174.91;5032333;28;20045;-70
2021/05/17 00:43:52;;;;;;;0.73;0.30;;;;;;;10.15;73.85;95183.44;5031820;28;20042;-70
2021/05/17 00:46:19;;;;;;;0.47;0.40;;;;;;;10.20;73.76;95185.91;5032115;28;20061;-70
2021/05/17 00:48:47;;;;;;;0.30;0.30;;;;;;;10.19;73.90;95181.63;5032034;28;20046;-69
2021/05/17 00:51:14;;;;;;;0.77;0.32;;;;;;;10.22;73.24;95184.78;5031875;28;20064;-70
2021/05/17 00:53:40;;;;;;;0.98;0.40;;;;;;;10.15;72.57;95194.31;5032226;28;20049;-70
2021/05/17 00:56:07;;;;;;;1.73;0.32;;;;;;;10.14;72.65;95190.00;5031332;28;20060;-69
2021/05/17 00:58:33;;;;;;;0.65;0.30;;;;;;;10.14;72.74;95195.44;5032543;28;20049;-70
2021/05/17 01:01:00;;;;;;;2.05;0.30;;;;;;;10.14;72.65;95192.72;5031495;28;20045;-70
2021/05/17 01:03:26;;;;;;;0.77;0.30;;;;;;;10.14;71.78;95187.28;5032134;28;20053;-70
2021/05/17 01:05:52;;;;;;;0.82;0.30;;;;;;;10.20;72.58;95191.34;5031282;28;20068;-69
2021/05/17 01:08:22;;;;;;;1.23;0.30;;;;;;;10.18;72.61;95188.19;5031904;28;20042;-70
2021/05/17 01:10:49;;;;;;;0.88;0.30;;;;;;;10.20;72.16;95187.84;5031408;28;20045;-69
2021/05/17 01:13:16;;;;;;;0.38;0.30;;;;;;;10.26;72.10;95193.88;5031751;28;20049;-70
2021/05/17 01:15:42;;;;;;;0.45;0.20;;;;;;;10.32;71.67;95203.38;5032097;28;20501;-69
2021/05/17 01:18:08;;;;;;;0.40;0.20;;;;;;;10.31;72.08;95201.78;5031323;28;20049;-70
2021/05/17 01:20:35;;;;;;;0.28;0.28;;;;;;;10.34;71.93;95207.34;5031964;28;20053;-69
2021/05/17 01:23:29;;;;;;;0.50;0.20;;;;;;;10.33;71.72;95205.75;5031211;28;20052;-70
2021/05/17 01:25:57;;;;;;;0.57;0.30;;;;;;;10.36;71.18;95215.16;5032189;28;20076;-69
2021/05/17 01:28:27;;;;;;;0.10;0.10;;;;;;;10.38;70.92;95202.78;5030661;28;20496;-69
2021/05/17 01:30:56;;;;;;;2.55;0.32;;;;;;;10.36;71.34;95217.88;5031731;28;20447;-69
2021/05/17 01:33:22;;;;;;;3.95;0.77;;;;;;;10.36;71.23;95224.09;5030641;28;20053;-70
2021/05/17 01:35:49;;;;;;;1.08;0.30;;;;;;;10.33;70.82;95226.72;5029634;28;20404;-70
2021/05/17 01:38:18;;;;;;;2.72;0.45;;;;;;;10.34;70.83;95236.50;5030993;28;20045;-69
2021/05/17 01:40:46;;;;;;;2.55;0.55;;;;;;;10.31;70.99;95223.56;5030974;28;20668;-70
2021/05/17 01:43:13;;;;;;;0.85;0.30;;;;;;;10.34;70.91;95217.44;5030668;28;20052;-69
2021/05/17 01:45:40;;;;;;;2.95;0.40;;;;;;;10.37;71.69;95219.47;5030704;28;20037;-70
2021/05/17 01:48:07;;;;;;;0.80;0.30;;;;;;;10.40;71.15;95221.50;5031500;28;20045;-69
2021/05/17 01:50:34;;;;;;;1.15;0.50;;;;;;;10.40;72.00;95225.00;5030603;28;20049;-69
2021/05/17 01:53:00;;;;;;;1.95;0.40;;;;;;;10.41;71.38;95217.63;5031269;28;20045;-69
2021/05/17 01:55:28;;;;;;;4.43;0.30;;;;;;;10.43;71.62;95215.34;5030539;28;20041;-69
2021/05/17 01:58:05;;;;;;;1.40;0.43;;;;;;;10.40;72.03;95221.50;5031006;28;20042;-69
2021/05/17 02:00:31;;;;;;;0.90;0.40;;;;;;;10.39;72.12;95225.38;5030935;28;20047;-69
2021/05/17 02:02:58;;;;;;;0.73;0.40;;;;;;;10.38;72.13;95226.47;5030542;28;20037;-70
2021/05/17 02:05:25;;;;;;;1.60;0.50;;;;;;;10.35;71.52;95229.91;5030653;28;20046;-69
2021/05/17 02:07:52;;;;;;;1.75;0.43;;;;;;;10.34;72.01;95228.31;5030014;28;20547;-70
2021/05/17 02:10:18;;;;;;;0.47;0.30;;;;;;;10.30;71.69;95227.41;5031164;28;20045;-69
2021/05/17 02:12:46;;;;;;;2.08;0.73;;;;;;;10.32;71.88;95219.69;5030017;28;20500;-69
2021/05/17 02:15:13;;;;;;;2.38;0.60;;;;;;;10.35;72.00;95202.69;5030699;28;20037;-69
2021/05/17 02:17:40;;;;;;;0.82;0.40;;;;;;;10.33;71.56;95213.91;5030422;28;20049;-69
2021/05/17 02:20:07;;;;;;;2.58;0.70;;;;;;;10.33;71.67;95218.56;5029960;28;20045;-69
2021/05/17 02:22:33;;;;;;;2.40;0.70;;;;;;;10.33;71.51;95210.38;5030698;28;20049;-69
2021/05/17 02:25:00;;;;;;;1.67;0.50;;;;;;;10.25;71.54;95219.50;5030247;28;20098;-69
2021/05/17 02:27:26;;;;;;;3.60;0.55;;;;;;;10.27;72.11;95218.00;5030424;28;20082;-69
2021/05/17 02:29:53;;;;;;;0.98;0.63;;;;;;;10.25;71.60;95214.84;5029742;28;20045;-69
2021/05/17 02:32:21;;;;;;;0.52;0.40;;;;;;;10.29;71.79;95223.13;5030388;28;20637;-69
2021/05/17 02:34:47;;;;;;;0.52;0.40;;;;;;;10.30;71.85;95222.78;5028455;28;20033;-69
2021/05/17 02:37:14;;;;;;;0.93;0.50;;;;;;;10.32;71.91;95225.94;5030370;28;20053;-69
2021/05/17 02:39:40;;;;;;;1.17;0.50;;;;;;;10.32;71.74;95238.75;5030102;28;20052;-70
2021/05/17 02:42:13;;;;;;;1.33;0.50;;;;;;;10.31;71.56;95237.97;5029920;28;20037;-70
2021/05/17 02:44:40;;;;;;;2.10;0.50;;;;;;;10.33;71.48;95240.31;5030460;28;20045;-69
2021/05/17 02:47:08;;;;;;;3.97;1.42;;;;;;;10.35;71.51;95246.22;5029745;28;20048;-70
2021/05/17 02:49:35;;;;;;;1.83;0.52;;;;;;;10.34;71.37;95244.66;5030738;28;20045;-70
2021/05/17 02:52:01;;;;;;;2.80;0.68;;;;;;;10.34;71.74;95250.09;5029693;28;20072;-69
2021/05/17 02:54:31;;;;;;;0.65;0.38;;;;;;;10.30;71.71;95254.63;5031664;28;20050;-69
2021/05/17 02:57:07;;;;;;;1.05;0.50;;;;;;;10.30;71.94;95257.34;5033761;28;20057;-69
2021/05/17 03:00:10;;;;;;;1.35;0.70;;;;;;;10.34;71.40;95267.22;5027364;28;20463;-69
2021/05/17 03:02:51;;;;;;;1.58;0.60;;;;;;;10.32;71.71;95268.69;5027320;28;20115;-69
2021/05/17 03:05:18;;;;;;;1.25;0.35;;;;;;;10.29;71.56;95269.38;5033322;28;20048;-69
2021/05/17 03:07:48;;;;;;;0.98;0.50;;;;;;;10.29;72.44;95277.53;5034567;28;20045;-69
2021/05/17 03:10:15;;;;;;;0.70;0.40;;;;;;;10.27;72.35;95266.19;5033330;28;20053;-69
2021/05/17 03:12:42;;;;;;;2.28;0.50;;;;;;;10.25;72.56;95269.25;5034730;28;20053;-70
2021/05/17 03:15:10;;;;;;;1.58;0.60;;;;;;;10.30;72.63;95276.41;5033244;28;20076;-69
2021/05/17 03:17:37;;;;;;;1.20;0.40;;;;;;;10.30;72.33;95276.41;5034345;28;20049;-70
2021/05/17 03:20:06;;;;;;;1.38;0.50;;;;;;;10.31;72.73;95276.03;5033304;28;20633;-70
2021/05/17 03:22:33;;;;;;;2.95;0.38;;;;;;;10.28;72.37;95273.22;5033867;28;20049;-69
2021/05/17 03:25:03;;;;;;;3.03;0.60;;;;;;;10.28;72.39;95281.38;5034086;28;20045;-69
2021/05/17 03:27:29;;;;;;;0.50;0.40;;;;;;;10.29;72.53;95274.81;5033302;28;20095;-70
2021/05/17 03:29:56;;;;;;;0.80;0.50;;;;;;;10.28;71.98;95278.66;5034159;28;20046;-70
2021/05/17 03:32:24;;;;;;;1.85;0.50;;;;;;;10.33;72.41;95281.94;5032590;28;20131;-70
2021/05/17 03:34:50;;;;;;;1.85;0.60;;;;;;;10.39;71.01;95285.25;5034081;28;20053;-69
2021/05/17 03:37:17;;;;;;;1.33;0.52;;;;;;;10.40;71.11;95276.72;5032685;28;20045;-70
2021/05/17 03:39:44;;;;;;;1.75;0.57;;;;;;;10.41;71.46;95288.41;5033763;28;20615;-70
2021/05/17 03:42:10;;;;;;;1.33;0.50;;;;;;;10.44;71.16;95287.72;5032923;28;20073;-70
2021/05/17 03:44:36;;;;;;;1.73;0.40;;;;;;;10.46;70.50;95293.59;5033718;28;20438;-70
2021/05/17 03:47:02;;;;;;;0.57;0.30;;;;;;;10.43;70.90;95288.84;5033232;28;20065;-70
2021/05/17 03:49:28;;;;;;;0.57;0.40;;;;;;;10.45;70.65;95292.03;5033103;28;20049;-69
2021/05/17 03:51:54;;;;;;;2.75;0.50;;;;;;;10.44;70.28;95293.16;5033711;28;20037;-70
2021/05/17 03:54:21;;;;;;;1.00;0.40;;;;;;;10.43;70.37;95291.56;5032315;28;20073;-70
2021/05/17 03:56:47;;;;;;;0.90;0.30;;;;;;;10.40;70.13;95286.81;5033962;28;20083;-70
2021/05/17 03:59:16;;;;;;;1.67;0.35;;;;;;;10.36;70.47;95291.34;5032281;28;20420;-70
2021/05/17 04:01:43;;;;;;;1.35;0.43;;;;;;;10.36;69.68;95285.91;5030997;28;20091;-70
2021/05/17 04:04:09;;;;;;;0.35;0.30;;;;;;;10.34;70.10;95285.47;5032150;28;20057;-70
2021/05/17 04:06:43;;;;;;;0.65;0.38;;;;;;;10.40;70.09;95300.44;5032016;28;20458;-70
2021/05/17 04:14:37;;;;;;;1.15;0.30;;;;;;;10.45;70.26;95300.97;5033035;28;20179;-70
2021/05/17 04:17:03;;;;;;;0.47;0.20;;;;;;;10.49;69.26;95298.34;5032083;28;20037;-69
2021/05/17 04:19:29;;;;;;;0.50;0.40;;;;;;;10.44;69.01;95304.06;5032992;28;20052;-69
2021/05/17 04:21:55;;;;;;;0.80;0.43;;;;;;;10.39;68.96;95301.56;5032444;28;20088;-70
2021/05/17 04:24:22;;;;;;;0.65;0.40;;;;;;;10.42;69.03;95311.75;5032621;28;20423;-69
2021/05/17 04:26:48;;;;;;;0.50;0.28;;;;;;;10.41;69.42;95304.72;5032754;28;20049;-70
2021/05/17 04:29:15;;;;;;;2.85;0.40;;;;;;;10.37;69.03;95303.81;5032018;28;20052;-69
2021/05/17 04:31:41;;;;;;;0.50;0.20;;;;;;;10.39;69.25;95312.44;5032664;28;20046;-70
2021/05/17 04:34:07;;;;;;;1.27;0.35;;;;;;;10.42;69.66;95311.75;5031468;28;20045;-70
2021/05/17 04:36:33;;;;;;;2.60;0.40;;;;;;;10.41;69.16;95318.34;5031533;28;20053;-70
2021/05/17 04:38:59;;;;;;;1.10;0.40;;;;;;;10.37;69.70;95318.22;5031827;28;20061;-70
2021/05/17 04:41:25;;;;;;;0.38;0.30;;;;;;;10.35;69.28;95322.44;5032349;28;20045;-70
2021/05/17 04:43:51;;;;;;;1.48;0.40;;;;;;;10.36;70.51;95315.84;5031608;28;20045;-70
2021/05/17 04:46:18;;;;;;;0.68;0.30;;;;;;;10.30;70.98;95330.81;5032220;28;20041;-69
2021/05/17 04:48:49;;;;;;;1.45;0.40;;;;;;;10.22;70.09;95334.41;5032089;28;20049;-69
2021/05/17 04:51:15;;;;;;;0.57;0.43;;;;;;;10.06;71.48;95337.00;5031812;28;20060;-69
2021/05/17 04:53:42;;;;;;;0.85;0.45;;;;;;;9.99;71.45;95334.84;5032042;28;20056;-70
2021/05/17 04:56:08;;;;;;;2.92;0.40;;;;;;;9.95;72.16;95331.22;5031326;28;20590;-69
2021/05/17 04:58:34;;;;;;;2.20;0.35;;;;;;;9.85;71.78;95334.38;5032237;28;20046;-69
2021/05/17 05:01:01;;;;;;;3.60;0.50;;;;;;;9.84;72.23;95327.34;5031619;28;20080;-70
2021/05/17 05:03:29;;;;;;;1.25;0.30;;;;;;;9.85;72.26;95324.28;5032349;28;20041;-69
2021/05/17 05:05:55;;;;;;;1.42;0.40;;;;;;;9.89;71.84;95321.69;5031332;28;20053;-69
2021/05/17 05:08:21;;;;;;;0.98;0.30;;;;;;;9.94;71.83;95326.91;5031839;28;20549;-70
2021/05/17 05:10:47;;;;;;;1.80;0.40;;;;;;;9.99;71.21;95321.25;5031585;28;20056;-70
2021/05/17 05:13:13;;;;;;;1.00;0.43;;;;;;;10.04;71.01;95315.59;5031422;28;20545;-69
2021/05/17 05:15:39;;;;;;;1.08;0.47;;;;;;;9.97;70.27;95328.97;5031318;28;20051;-69
2021/05/17 05:18:05;;;;;;;1.90;0.47;;;;;;;10.00;70.68;95316.59;5030510;28;20073;-69
2021/05/17 05:20:32;;;;;;;2.10;0.60;;;;;;;9.99;70.85;95325.91;5031944;28;20049;-68
2021/05/17 05:22:59;;;;;;;4.25;0.60;;;;;;;10.04;70.50;95322.97;5031215;28;20504;-68
2021/05/17 05:25:29;;;;;;;1.63;0.60;;;;;;;10.08;70.47;95327.38;5031551;28;20079;-67
2021/05/17 05:27:57;;;;;;;1.23;0.55;;;;;;;10.11;70.20;95329.41;5030753;28;20075;-68
2021/05/17 05:30:29;;;;;;;3.53;0.60;;;;;;;10.14;70.40;95326.03;5031498;28;20411;-68
2021/05/17 05:33:06;;;;;;;2.17;0.63;;;;;;;10.17;69.59;95332.69;5030885;28;20060;-68
2021/05/17 05:35:33;;;;;;;3.50;0.70;;;;;;;10.22;69.91;95327.03;5029310;28;20052;-72
2021/05/17 05:37:59;;;;;;;2.47;0.60;;;;;;;10.24;70.04;95343.84;5029420;28;20068;-72
2021/05/17 05:40:25;;;;;;;5.30;0.77;;;;;;;10.19;69.26;95336.69;5030750;28;20041;-73
2021/05/17 05:42:51;;;;;;;1.77;0.50;;;;;;;10.22;69.80;95340.63;5031626;28;20428;-72
2021/05/17 05:45:18;;;;;;;3.90;0.90;;;;;;;10.18;69.08;95345.97;5031192;28;20076;-72
2021/05/17 05:47:44;;;;;;;3.95;0.70;;;;;;;10.21;69.47;95344.50;5031443;28;20488;-72
2021/05/17 05:50:11;;;;;;;2.20;0.60;;;;;;;10.25;69.78;95350.09;5030289;28;20046;-72
2021/05/17 05:52:38;;;;;;;4.35;0.88;;;;;;;10.35;69.10;95352.34;5031735;28;20041;-72
2021/05/17 05:55:05;;;;;;;5.00;1.00;;;;;;;10.37;68.07;95360.97;5029968;28;20084;-72
2021/05/17 05:57:37;;;;;;;3.30;1.00;;;;;;;10.42;68.78;95358.00;5030748;28;20053;-73
2021/05/17 06:00:06;;;;;;;2.65;0.60;;;;;;;10.42;68.84;95361.53;5029421;28;20038;-72
2021/05/17 06:02:33;;;;;;;5.10;1.10;;;;;;;10.46;68.37;95369.81;5030744;28;20590;-74
2021/05/17 06:04:59;;;;;;;4.20;0.90;;;;;;;10.55;68.94;95370.50;5030820;28;20037;-72
2021/05/17 06:07:25;;;;;;;5.80;0.80;;;;;;;10.63;69.56;95366.84;5029347;28;20107;-73
2021/05/17 06:09:52;;;;;;;5.88;1.08;;;;;;;10.60;67.41;95372.19;5031175;28;20048;-72
2021/05/17 06:12:19;;;;;;;7.78;1.00;;;;;;;10.54;67.17;95385.22;5029043;28;20046;-76
2021/05/17 06:14:46;;;;;;;4.75;0.85;;;;;;;10.50;67.19;95378.88;5031091;28;20042;-75
2021/05/17 06:17:13;;;;;;;6.22;1.08;;;;;;;10.53;68.08;95380.13;5029692;28;20099;-72
2021/05/17 06:19:39;;;;;;;4.30;0.70;;;;;;;10.59;67.27;95379.53;5030976;28;20049;-72
2021/05/17 06:22:06;;;;;;;3.85;0.98;;;;;;;10.74;67.96;95380.78;5030144;28;20052;-72
2021/05/17 06:24:33;;;;;;;2.72;0.88;;;;;;;10.78;68.38;95387.13;5030670;28;20056;-72
2021/05/17 06:27:03;;;;;;;6.95;1.27;;;;;;;10.78;66.95;95380.91;5030524;28;20046;-72
2021/05/17 06:29:29;;;;;;;2.58;0.80;;;;;;;10.78;68.18;95384.41;5029845;28;20045;-71
2021/05/17 06:31:56;;;;;;;4.15;0.93;;;;;;;10.78;66.58;95383.63;5030818;28;20053;-72
2021/05/17 06:34:22;;;;;;;3.45;0.80;;;;;;;10.73;67.27;95392.03;5029304;28;20583;-73
2021/05/17 06:36:48;;;;;;;5.07;1.02;;;;;;;10.75;67.54;95381.56;5030937;28;20041;-72
2021/05/17 06:39:15;;;;;;;7.43;1.10;;;;;;;10.73;67.12;95381.13;5029485;28;20521;-72
2021/05/17 06:41:41;;;;;;;3.65;0.95;;;;;;;10.78;68.19;95375.47;5031142;28;20195;-73
2021/05/17 06:44:09;;;;;;;7.88;0.98;;;;;;;10.90;70.49;95386.31;5029564;28;20048;-72
2021/05/17 06:46:37;;;;;;;8.15;1.10;;;;;;;10.94;67.73;95398.13;5030672;28;20045;-72
2021/05/17 06:49:04;;;;;;;6.63;0.95;;;;;;;10.91;67.38;95393.34;5029878;28;20045;-71
2021/05/17 06:51:30;;;;;;;5.00;0.82;;;;;;;10.98;68.59;95393.56;5030288;28;20107;-72
2021/05/17 06:53:59;;;;;;;6.72;1.40;;;;;;;11.06;67.03;95400.81;5030555;28;20415;-72
2021/05/17 06:56:28;;;;;;;4.70;0.90;;;;;;;11.10;68.73;95396.28;5029537;28;20069;-73
2021/05/17 06:58:55;;;;;;;7.40;1.20;;;;;;;11.18;65.95;95394.56;5030865;28;20533;-73
2021/05/17 07:01:23;;;;;;;4.13;1.02;;;;;;;11.13;65.90;95411.94;5029309;28;20048;-73
2021/05/17 07:03:50;;;;;;;7.32;1.00;;;;;;;11.09;66.62;95400.13;5030929;28;20068;-72
2021/05/17 07:06:20;;;;;;;3.10;1.15;;;;;;;11.01;66.86;95409.22;5027514;28;20044;-74
2021/05/17 07:11:49;;;;;;;4.32;0.70;;;;;;;10.86;66.49;95407.22;4956242;28;20098;-73
2021/05/17 07:14:15;;;;;;;5.88;0.88;;;;;;;10.85;67.26;95416.50;5029374;28;20046;-72
2021/05/17 07:16:44;;;;;;;4.13;1.02;;;;;;;10.94;68.59;95412.53;5030632;28;20099;-73
2021/05/17 07:19:10;;;;;;;5.93;0.82;;;;;;;11.05;68.41;95417.50;5029169;28;20073;-72
2021/05/17 07:24:22;;;;;;;4.00;0.75;;;;;;;11.27;65.54;95422.44;5029359;28;20064;-73
2021/05/17 07:26:48;;;;;;;5.22;0.90;;;;;;;11.26;64.06;95420.06;5030411;28;20037;-73
2021/05/17 07:29:15;;;;;;;5.50;1.00;;;;;;;11.44;66.21;95405.03;5029542;28;20046;-73
2021/05/17 07:31:42;;;;;;;5.38;0.98;;;;;;;11.57;64.62;95422.94;5029921;28;20052;-73
2021/05/17 07:34:08;;;;;;;8.80;1.10;;;;;;;11.60;64.98;95419.50;5029657;28;20042;-73
2021/05/17 07:36:34;;;;;;;6.25;1.05;;;;;;;11.75;64.90;95418.78;5029209;28;20042;-74
2021/05/17 07:39:00;;;;;;;6.18;1.02;;;;;;;11.84;63.92;95406.94;5030585;28;20072;-73
2021/05/17 07:41:26;;;;;;;4.13;0.63;;;;;;;11.90;64.54;95410.97;5031302;28;20049;-73
2021/05/17 07:43:52;;;;;;;6.30;0.90;;;;;;;11.90;63.96;95410.97;5034056;28;20091;-72
2021/05/17 07:46:18;;;;;;;5.22;0.68;;;;;;;11.97;63.69;95414.72;5032563;28;20041;-73
2021/05/17 07:51:29;;;;;;;5.15;0.88;;;;;;;11.97;63.95;95411.19;5033064;28;20065;-73
2021/05/17 07:53:55;;;;;;;6.45;0.98;;;;;;;11.84;63.01;95420.56;5033231;28;20042;-72
2021/05/17 07:56:22;;;;;;;3.47;0.93;;;;;;;11.79;63.36;95420.78;5033182;28;20056;-73
2021/05/17 07:58:49;;;;;;;8.15;0.90;;;;;;;11.76;64.28;95435.94;5032767;28;20548;-73
2021/05/17 08:01:15;;;;;;;5.13;1.00;;;;;;;11.78;62.80;95425.44;5033314;28;20052;-73
2021/05/17 08:03:41;;;;;;;5.00;1.20;;;;;;;11.69;61.95;95431.06;5032776;28;20552;-73
2021/05/17 08:06:08;;;;;;;6.93;1.10;;;;;;;11.77;64.65;95429.31;5031063;28;20132;-72
2021/05/17 08:08:34;;;;;;;3.80;1.00;;;;;;;11.92;62.73;95430.53;5032646;28;20042;-73
2021/05/17 08:11:01;;;;;;;6.03;0.90;;;;;;;12.57;60.64;95422.03;5033423;28;20041;-73
2021/05/17 08:13:27;;;;;;;6.75;0.80;;;;;;;12.66;60.37;95420.72;5032391;28;20057;-72
2021/05/17 08:15:53;;;;;;;5.15;1.15;;;;;;;12.54;60.72;95418.09;5032965;28;20038;-73
2021/05/17 08:18:21;;;;;;;4.13;0.88;;;;;;;12.84;60.18;95431.28;5032600;28;20041;-72
2021/05/17 08:20:47;;;;;;;3.45;0.80;;;;;;;12.81;61.06;95419.13;5032741;28;20042;-73
2021/05/17 08:23:16;;;;;;;4.78;0.98;;;;;;;12.83;59.99;95421.50;5032895;28;20042;-73
2021/05/17 08:25:42;;;;;;;5.00;0.93;;;;;;;12.50;59.63;95426.19;5033054;28;20056;-73
2021/05/17 08:28:09;;;;;;;3.28;0.90;;;;;;;12.47;60.56;95424.16;5032758;28;20389;-73
2021/05/17 08:30:41;;;;;;;3.20;0.90;;;;;;;12.48;62.24;95422.25;5032166;28;20048;-73
2021/05/17 08:33:07;;;;;;;3.47;0.80;;;;;;;12.44;61.57;95429.56;5032471;28;20046;-72
2021/05/17 08:35:33;;;;;;;3.85;0.90;;;;;;;12.35;61.20;95426.97;5024625;28;20076;-74
2021/05/17 08:37:59;;;;;;;3.97;0.80;;;;;;;12.27;61.47;95430.69;5013339;28;20103;-72
2021/05/17 08:40:27;;;;;;;7.05;0.90;;;;;;;12.27;61.90;95436.16;5012746;28;20045;-73
2021/05/17 08:42:53;;;;;;;8.25;0.80;;;;;;;12.10;62.82;95439.97;5012588;28;20049;-72
2021/05/17 08:45:19;;;;;;;3.85;0.95;;;;;;;11.95;63.85;95430.66;5012527;28;20054;-72
2021/05/17 08:47:46;;;;;;;2.08;0.80;;;;;;;11.96;65.42;95436.91;5012312;28;20045;-72
2021/05/17 08:50:12;;;;;;;3.20;0.60;;;;;;;12.16;63.88;95427.69;5012622;28;20424;-73
2021/05/17 08:52:38;;;;;;;1.65;0.60;;;;;;;12.36;62.83;95425.03;5012092;28;20050;-73
2021/05/17 08:55:06;;;;;;;3.13;0.80;;;;;;;12.75;62.90;95421.34;5012606;28;20049;-72
2021/05/17 08:57:33;;;;;;;4.57;0.82;;;;;;;13.10;58.90;95423.28;5011966;28;20045;-73
2021/05/17 08:59:59;;;;;;;4.47;0.90;;;;;;;13.02;59.94;95421.56;5012702;28;20200;-72
2021/05/17 09:02:27;;;;;;;2.63;0.60;;;;;;;13.00;59.65;95429.31;5011412;28;20038;-73
2021/05/17 09:05:15;;;;;;;2.25;0.52;;;;;;;12.87;59.36;95430.56;5014001;28;20046;-73
2021/05/17 09:07:42;;;;;;;2.40;0.70;;;;;;;12.86;59.53;95434.47;5032101;28;20488;-72
2021/05/17 09:10:17;;;;;;;2.75;0.85;;;;;;;12.99;58.46;95427.72;5030658;28;20037;-72
2021/05/17 09:13:05;;;;;;;3.97;0.88;;;;;;;13.00;59.34;95429.31;5032425;28;20057;-72
2021/05/17 09:15:34;;;;;;;6.78;0.73;;;;;;;13.08;60.19;95431.06;5031381;28;20099;-73
2021/05/17 09:18:03;;;;;;;4.40;0.80;;;;;;;13.17;60.00;95426.19;5031890;28;20049;-73
2021/05/17 09:20:37;;;;;;;3.70;0.50;;;;;;;13.14;57.19;95429.63;5031362;28;20041;-73
2021/05/17 09:23:11;;;;;;;3.08;0.43;;;;;;;12.98;57.99;95426.16;5031135;28;20065;-72
2021/05/17 09:25:38;;;;;;;1.58;0.55;;;;;;;13.16;57.36;95435.56;5032079;28;20091;-73
2021/05/17 09:28:08;;;;;;;2.88;0.60;;;;;;;13.29;57.25;95428.81;5030503;28;20045;-73
2021/05/17 09:30:47;;;;;;;1.88;0.40;;;;;;;13.58;59.30;95416.56;5032091;28;20103;-73
2021/05/17 09:33:15;;;;;;;2.30;0.63;;;;;;;13.77;56.05;95418.47;5030344;28;20041;-73
2021/05/17 09:35:43;;;;;;;4.13;0.60;;;;;;;13.86;58.79;95423.75;5029338;28;20484;-73
2021/05/17 09:38:18;;;;;;;3.38;0.47;;;;;;;13.91;55.97;95422.66;5030793;28;20048;-73
2021/05/17 09:40:45;;;;;;;3.30;0.50;;;;;;;13.95;56.03;95420.78;5031413;28;20492;-73
2021/05/17 09:43:15;;;;;;;0.55;0.30;;;;;;;14.07;57.70;95415.13;5031323;28;20045;-73
2021/05/17 09:45:44;;;;;;;6.65;1.10;;;;;;;14.35;55.05;95404.72;5030175;28;20041;-73
2021/05/17 09:48:11;;;;;;;0.93;0.32;;;;;;;14.40;55.70;95411.00;5031203;28;20053;-74
2021/05/17 09:51:00;;;;;;;0.75;0.40;;;;;;;14.40;54.25;95416.50;5031340;28;20494;-73
2021/05/17 09:53:28;;;;;;;1.52;0.95;;;;;;;14.43;53.67;95410.28;5030765;28;20516;-73
2021/05/17 09:55:54;;;;;;;2.00;0.40;;;;;;;14.45;52.76;95411.50;5030712;28;20041;-73
2021/05/17 09:58:30;;;;;;;2.20;0.40;;;;;;;14.60;53.39;95415.31;5030316;28;20050;-74
2021/05/17 10:01:17;;;;;;;1.13;0.30;;;;;;;14.64;52.54;95413.41;5031257;28;20041;-74
2021/05/17 10:03:48;;;;;;;1.85;0.38;;;;;;;14.64;52.04;95404.41;5030293;28;20041;-73
2021/05/17 10:06:18;;;;;;;2.13;0.28;;;;;;;14.53;51.48;95399.53;5029234;28;20045;-73
2021/05/17 10:08:45;;;;;;;2.22;0.30;;;;;;;14.47;52.06;95413.91;5030555;28;20055;-73
2021/05/17 10:11:11;;;;;;;1.75;0.55;;;;;;;14.23;51.97;95424.03;5030635;28;20705;-72
2021/05/17 10:13:38;;;;;;;1.35;0.30;;;;;;;13.94;52.50;95405.50;5030418;28;20044;-73
2021/05/17 10:16:08;;;;;;;1.85;0.50;;;;;;;14.03;54.72;95414.28;5030472;28;20073;-72
2021/05/17 10:18:35;;;;;;;0.40;0.30;;;;;;;13.99;51.10;95407.94;5030753;28;20488;-73
2021/05/17 10:21:02;;;;;;;2.30;0.40;;;;;;;13.93;53.84;95410.19;5030433;28;20038;-72
2021/05/17 10:23:29;;;;;;;1.33;0.40;;;;;;;13.89;54.68;95414.03;5031116;28;20056;-72
2021/05/17 10:26:06;;;;;;;2.33;0.40;;;;;;;13.80;54.60;95417.75;5030083;28;20408;-72
2021/05/17 10:28:34;;;;;;;0.90;0.25;;;;;;;13.53;53.43;95429.72;5023901;28;20045;-72
2021/05/17 10:31:09;;;;;;;2.10;0.40;;;;;;;13.34;53.78;95421.50;5030092;28;20048;-72
2021/05/17 10:33:35;;;;;;;2.33;0.30;;;;;;;13.36;54.37;95421.91;5030393;28;20041;-73
2021/05/17 10:36:05;;;;;;;1.17;0.30;;;;;;;13.32;54.25;95424.59;5030366;28;20493;-73
2021/05/17 10:38:36;;;;;;;2.15;0.35;;;;;;;13.34;57.41;95416.03;5030142;28;20099;-73
2021/05/17 10:41:32;;;;;;;5.95;0.40;;;;;;;13.57;56.25;95425.09;5030207;28;20071;-74
2021/05/17 10:44:06;;;;;;;2.30;0.30;;;;;;;14.01;53.51;95422.06;5029840;28;20052;-72
2021/05/17 10:46:47;;;;;;;3.88;0.30;;;;;;;14.35;54.74;95421.13;5030826;28;20069;-73
2021/05/17 10:49:22;;;;;;;1.70;0.40;;;;;;;14.76;52.74;95421.44;5029778;28;20511;-73
2021/05/17 10:51:49;;;;;;;0.85;0.40;;;;;;;15.01;54.17;95421.81;5030205;28;20044;-72
2021/05/17 10:54:26;;;;;;;2.63;0.40;;;;;;;15.46;52.19;95422.84;5029992;28;20045;-73
2021/05/17 10:56:55;;;;;;;1.80;0.35;;;;;;;15.66;50.37;95409.81;5030035;28;20039;-72
2021/05/17 11:02:15;;;;;;;2.38;0.50;;;;;;;15.88;50.93;95427.31;5029618;28;20564;-72
2021/05/17 11:04:53;;;;;;;3.25;0.35;;;;;;;15.87;49.94;95415.56;5029999;28;20068;-72
2021/05/17 11:07:24;;;;;;;2.70;0.50;;;;;;;15.76;49.32;95411.88;5010340;28;20034;-73
2021/05/17 11:10:09;;;;;;;1.77;0.32;;;;;;;15.64;50.79;95412.13;5010234;28;20573;-72
2021/05/17 11:13:06;;;;;;;1.08;0.38;;;;;;;15.39;49.97;95418.03;5010930;28;20045;-73
2021/05/17 11:16:01;;;;;;;0.75;0.40;;;;;;;15.49;50.59;95424.06;5003671;28;20041;-72
2021/05/17 11:18:44;;;;;;;0.65;0.40;;;;;;;15.82;52.03;95423.34;5013927;28;20049;-72
2021/05/17 11:21:13;;;;;;;1.27;0.40;;;;;;;16.08;52.11;95431.47;5014517;28;20042;-72
2021/05/17 11:23:56;;;;;;;0.57;0.30;;;;;;;15.54;47.64;95451.16;5013770;28;20042;-73
2021/05/17 11:26:24;;;;;;;4.53;0.50;;;;;;;15.42;51.80;95459.63;5010530;28;20477;-74
2021/05/17 11:29:07;;;;;;;2.20;0.40;;;;;;;15.20;51.81;95477.75;5013184;28;20073;-74
2021/05/17 11:31:38;;;;;;;4.40;0.50;;;;;;;14.31;53.29;95488.75;4994290;28;20048;-72
2021/05/17 11:34:13;;;;;;;0.70;0.30;;;;;;;13.36;56.58;95501.22;4993674;28;20049;-73
2021/05/17 11:36:43;;;;;;;2.05;0.40;;;;;;;12.90;58.82;95484.53;5023402;28;20049;-73
2021/05/17 11:39:14;;;;;;;6.63;0.73;;;;;;;12.17;63.62;95486.59;5033141;28;20045;-74
2021/05/17 11:41:42;;;;;;;2.90;0.40;;;;;;;11.67;65.82;95487.88;5032559;28;20045;-75
2021/05/17 11:44:10;;;;;;;2.25;0.50;;;;;;;11.31;68.93;95482.53;5033272;28;20057;-74
2021/05/17 11:46:38;;;;;;;2.05;0.70;;;;;;;11.11;70.66;95479.59;5032885;28;20049;-73
2021/05/17 11:49:05;;;;;;;17.17;3.63;;;;;;;11.18;68.95;95479.81;5032987;28;20156;-73
2021/05/17 11:51:33;;;;;;;5.53;0.80;;;;;;;11.23;69.07;95485.03;5033194;28;20045;-73
2021/05/17 11:54:01;;;;;;;3.22;0.50;;;;;;;11.24;68.44;95481.16;5032749;28;20664;-73
2021/05/17 11:56:35;;;;;;;0.73;0.28;;;;;;;11.53;68.44;95471.09;5016807;28;20443;-73
2021/05/17 11:59:13;;;;;;;3.42;0.35;;;;;;;12.09;67.08;95473.09;5032615;28;20051;-73